Lebeau, Louisiana
Current Conditions -  °F | °C
As of 12:35 AM on Thursday 27 Nov 2014 (Local Time) from KOPL Reporting Station
Clear Clear  
Wind Chill: 46°   Ceiling: Unl
Heat Index: 48°   Visibility: 10mi
Dew Point: 43°   Wind: 5mph
Humidity: 82%   Direction: 340°NNW
Pressure: 30.3"   Gusts: NA
Location:  30.73°N, 91.98°W
Report Text: KOPL 270635Z AUTO 34004KT 10SM CLR 09/06 A3030 RMK AO2 T00900060
Loading
Personal Weather Stations






























Interactive Weather Map New forecast layout! Learn more

10-Day Weather Forecast

Advertisements
Track Severe Weather on mobile